createdAt,value
2018-07-27T00:00:21.389Z,27.70
2018-07-27T00:01:26.144Z,27.70
2018-07-27T00:02:31.091Z,27.70
2018-07-27T00:03:35.769Z,27.70
2018-07-27T00:04:40.871Z,27.70
2018-07-27T00:05:45.660Z,27.70
2018-07-27T00:06:50.596Z,27.70
2018-07-27T00:07:55.341Z,27.70
2018-07-27T00:09:00.136Z,27.70
2018-07-27T00:10:05.137Z,27.70
2018-07-27T00:11:09.958Z,27.70
2018-07-27T00:12:14.670Z,27.70
2018-07-27T00:13:19.471Z,27.70
2018-07-27T00:14:24.172Z,27.70
2018-07-27T00:15:28.962Z,27.70
2018-07-27T00:16:33.956Z,27.70
2018-07-27T00:17:38.947Z,27.70
2018-07-27T00:18:43.690Z,27.70
2018-07-27T00:19:48.580Z,27.70
2018-07-27T00:20:53.651Z,27.70
2018-07-27T00:21:58.596Z,27.70
2018-07-27T00:23:03.459Z,27.70
2018-07-27T00:24:08.459Z,27.70
2018-07-27T00:25:13.356Z,27.70
2018-07-27T00:26:18.362Z,27.70
2018-07-27T00:27:23.354Z,27.70
2018-07-27T00:28:28.108Z,27.70
2018-07-27T00:29:32.864Z,27.70
2018-07-27T00:30:37.804Z,27.70
2018-07-27T00:31:42.560Z,27.70
2018-07-27T00:32:47.473Z,27.70
2018-07-27T00:33:52.402Z,27.70
2018-07-27T00:34:57.371Z,27.70
2018-07-27T00:36:02.096Z,27.70
2018-07-27T00:37:07.004Z,27.70
2018-07-27T00:38:11.931Z,27.70
2018-07-27T00:39:16.808Z,27.70
2018-07-27T00:40:21.567Z,27.70
2018-07-27T00:41:26.342Z,27.70
2018-07-27T00:42:31.280Z,27.70
2018-07-27T00:43:36.040Z,27.70
2018-07-27T00:44:40.837Z,27.70
2018-07-27T00:45:45.563Z,27.70
2018-07-27T00:46:50.371Z,27.70
2018-07-27T00:47:55.235Z,27.70
2018-07-27T00:49:00.003Z,27.70
2018-07-27T00:50:04.903Z,27.70
2018-07-27T00:51:09.892Z,27.70
2018-07-27T00:52:15.494Z,27.70
2018-07-27T00:53:20.277Z,27.70
2018-07-27T00:54:25.200Z,27.70
2018-07-27T00:55:29.972Z,27.70
2018-07-27T00:56:34.913Z,27.70
2018-07-27T00:57:39.642Z,27.70
2018-07-27T00:58:44.359Z,27.70
2018-07-27T00:59:49.337Z,27.70
2018-07-27T01:00:54.314Z,27.70
2018-07-27T01:01:59.225Z,27.70
2018-07-27T01:03:04.017Z,27.70
2018-07-27T01:04:08.873Z,27.70
2018-07-27T01:05:13.712Z,27.70
2018-07-27T01:06:18.495Z,27.70
2018-07-27T01:07:23.256Z,27.70
2018-07-27T01:08:28.023Z,27.70
2018-07-27T01:09:33.005Z,27.70
2018-07-27T01:10:37.787Z,27.70
2018-07-27T01:11:42.745Z,27.70
2018-07-27T01:12:47.822Z,27.70
2018-07-27T01:13:52.657Z,27.70
2018-07-27T01:14:57.375Z,27.70
2018-07-27T01:16:02.345Z,27.70
2018-07-27T01:17:07.375Z,27.70
2018-07-27T01:18:12.114Z,27.70
2018-07-27T01:19:16.909Z,27.70
2018-07-27T01:20:21.699Z,27.70
2018-07-27T01:21:26.474Z,27.70
2018-07-27T01:22:31.538Z,27.70
2018-07-27T01:23:36.595Z,27.70
2018-07-27T01:24:41.356Z,27.70
2018-07-27T01:25:46.359Z,27.70
2018-07-27T01:26:51.131Z,27.70
2018-07-27T01:27:55.845Z,27.70
2018-07-27T01:29:00.802Z,27.70
2018-07-27T01:30:05.560Z,27.70
2018-07-27T01:31:10.547Z,27.70
2018-07-27T01:32:15.275Z,27.70
2018-07-27T01:33:20.273Z,27.70
2018-07-27T01:34:25.448Z,27.70
2018-07-27T01:35:30.388Z,27.70
2018-07-27T01:36:35.299Z,27.70
2018-07-27T01:37:40.071Z,27.70
2018-07-27T01:38:44.863Z,27.70
2018-07-27T01:39:49.754Z,27.70
2018-07-27T01:40:54.456Z,27.70
2018-07-27T01:41:59.220Z,27.70
2018-07-27T01:43:04.164Z,27.70
2018-07-27T01:44:08.903Z,27.70
2018-07-27T01:45:13.836Z,27.70
2018-07-27T01:46:18.937Z,27.70
2018-07-27T01:47:23.670Z,27.70
2018-07-27T01:48:28.434Z,27.70
2018-07-27T01:49:33.393Z,27.70
2018-07-27T01:50:38.419Z,27.70
2018-07-27T01:51:43.364Z,27.70
2018-07-27T01:52:48.395Z,27.70
2018-07-27T01:53:53.259Z,27.70
2018-07-27T01:54:57.981Z,27.70
2018-07-27T01:56:02.842Z,27.70
2018-07-27T01:57:07.752Z,27.70
2018-07-27T01:58:12.465Z,27.70
2018-07-27T01:59:17.499Z,27.70
2018-07-27T02:00:22.448Z,27.70
2018-07-27T02:01:27.398Z,27.70
2018-07-27T02:02:32.544Z,27.70
2018-07-27T02:03:37.494Z,27.70
2018-07-27T02:04:42.420Z,27.70
2018-07-27T02:05:47.088Z,27.70
2018-07-27T02:06:52.036Z,27.70
2018-07-27T02:07:57.053Z,27.70
2018-07-27T02:09:02.073Z,27.70
2018-07-27T02:10:06.988Z,27.70
2018-07-27T02:11:11.939Z,27.70
2018-07-27T02:12:17.010Z,27.70
2018-07-27T02:13:21.889Z,27.70
2018-07-27T02:14:26.783Z,27.70
2018-07-27T02:15:31.833Z,27.70
2018-07-27T02:16:36.602Z,27.70
2018-07-27T02:17:42.272Z,27.70
2018-07-27T02:18:47.019Z,27.70
2018-07-27T02:19:51.824Z,27.70
2018-07-27T02:20:57.501Z,27.70
2018-07-27T02:22:03.484Z,27.70
2018-07-27T02:23:08.482Z,27.70
2018-07-27T02:24:13.419Z,27.70
2018-07-27T02:25:18.377Z,27.70
2018-07-27T02:26:23.345Z,27.70
2018-07-27T02:27:28.146Z,27.70
2018-07-27T02:28:32.849Z,27.70
2018-07-27T02:29:37.640Z,27.70
2018-07-27T02:30:42.693Z,27.70
2018-07-27T02:31:47.500Z,27.70
2018-07-27T02:32:52.396Z,27.70
2018-07-27T02:33:57.417Z,27.70
2018-07-27T02:35:02.239Z,27.70
2018-07-27T02:36:07.274Z,27.70
2018-07-27T02:37:12.169Z,27.70
2018-07-27T02:38:17.427Z,27.70
2018-07-27T02:39:22.414Z,27.70
2018-07-27T02:40:27.487Z,27.70
2018-07-27T02:41:32.514Z,27.70
2018-07-27T02:42:37.640Z,27.70
2018-07-27T02:43:42.497Z,27.70
2018-07-27T02:44:47.599Z,27.70
2018-07-27T02:45:52.473Z,27.70
2018-07-27T02:46:57.394Z,27.70
2018-07-27T02:48:02.307Z,27.70
2018-07-27T02:49:07.328Z,27.70
2018-07-27T02:50:12.346Z,27.70
2018-07-27T02:51:17.338Z,27.70
2018-07-27T02:52:22.389Z,27.70
2018-07-27T02:53:27.338Z,27.70
2018-07-27T02:54:32.231Z,27.70
2018-07-27T02:55:37.080Z,27.70
2018-07-27T02:56:42.011Z,27.70
2018-07-27T02:57:46.765Z,27.70
2018-07-27T02:58:51.564Z,27.70
2018-07-27T02:59:56.664Z,27.70
2018-07-27T03:01:01.506Z,27.70
2018-07-27T03:02:06.398Z,27.70
2018-07-27T03:03:11.284Z,27.70
2018-07-27T03:04:16.021Z,27.70
2018-07-27T03:05:21.129Z,27.70
2018-07-27T03:06:26.008Z,27.70
2018-07-27T03:07:30.706Z,27.70
2018-07-27T03:08:35.832Z,27.70
2018-07-27T03:09:40.949Z,27.70
2018-07-27T03:10:45.780Z,27.70
2018-07-27T03:11:50.840Z,27.70
2018-07-27T03:12:55.997Z,27.70
2018-07-27T03:14:01.101Z,27.70
2018-07-27T03:15:06.089Z,27.70
2018-07-27T03:16:10.881Z,27.70
2018-07-27T03:17:15.899Z,27.70
2018-07-27T03:18:20.773Z,27.70
2018-07-27T03:19:28.674Z,27.70
2018-07-27T03:20:33.451Z,27.70
2018-07-27T03:21:38.469Z,27.70
2018-07-27T03:22:43.353Z,27.70
2018-07-27T03:23:48.366Z,27.70
2018-07-27T03:24:53.389Z,27.70
2018-07-27T03:25:58.394Z,27.70
2018-07-27T03:27:03.185Z,27.70
2018-07-27T03:28:08.086Z,27.70
2018-07-27T03:29:13.082Z,27.70
2018-07-27T03:30:18.098Z,27.70
2018-07-27T03:31:23.055Z,27.60
2018-07-27T03:32:27.870Z,27.70
2018-07-27T03:33:32.748Z,27.70
2018-07-27T03:34:37.564Z,27.70
2018-07-27T03:35:42.421Z,27.70
2018-07-27T03:36:47.478Z,27.70
2018-07-27T03:37:52.512Z,27.70
2018-07-27T03:38:57.522Z,27.70
2018-07-27T03:40:02.762Z,27.70
2018-07-27T03:41:07.792Z,27.70
2018-07-27T03:42:12.603Z,27.70
2018-07-27T03:43:17.295Z,27.70
2018-07-27T03:44:22.199Z,27.70
2018-07-27T03:45:27.199Z,27.60
2018-07-27T03:46:32.121Z,27.60
2018-07-27T03:47:36.834Z,27.70
2018-07-27T03:48:41.759Z,27.70
2018-07-27T03:49:46.564Z,27.70
2018-07-27T03:50:51.352Z,27.60
2018-07-27T03:51:56.730Z,27.60
2018-07-27T03:53:01.483Z,27.60
2018-07-27T03:54:06.448Z,27.70
2018-07-27T03:55:11.245Z,27.60
2018-07-27T03:56:16.833Z,27.60
2018-07-27T03:57:22.076Z,27.60
2018-07-27T03:58:27.112Z,27.60
2018-07-27T03:59:31.999Z,27.60
2018-07-27T04:00:36.919Z,27.60
2018-07-27T04:01:42.957Z,27.60
2018-07-27T04:02:48.757Z,27.60
2018-07-27T04:03:53.509Z,27.60
2018-07-27T04:04:58.758Z,27.60
2018-07-27T04:06:03.896Z,27.60
2018-07-27T04:07:08.853Z,27.60
2018-07-27T04:08:13.889Z,27.60
2018-07-27T04:09:18.913Z,27.60
2018-07-27T04:10:23.706Z,27.60
2018-07-27T04:11:28.540Z,27.60
2018-07-27T04:12:33.570Z,27.60
2018-07-27T04:13:38.522Z,27.70
2018-07-27T04:14:43.546Z,27.60
2018-07-27T04:15:48.597Z,27.70
2018-07-27T04:16:53.353Z,27.60
2018-07-27T04:17:58.396Z,27.60
2018-07-27T04:19:03.217Z,27.60
2018-07-27T04:20:07.977Z,27.60
2018-07-27T04:21:13.872Z,27.60
2018-07-27T04:22:19.920Z,27.60
2018-07-27T04:23:24.850Z,27.60
2018-07-27T04:24:29.749Z,27.60
2018-07-27T04:25:34.774Z,27.60
2018-07-27T04:26:39.739Z,27.60
2018-07-27T04:27:44.616Z,27.60
2018-07-27T04:28:50.285Z,27.60
2018-07-27T04:29:55.351Z,27.60
2018-07-27T04:31:00.954Z,27.60
2018-07-27T04:32:05.845Z,27.60
2018-07-27T04:33:10.713Z,27.60
2018-07-27T04:34:15.671Z,27.60
2018-07-27T04:35:20.529Z,27.60
2018-07-27T04:36:25.644Z,27.60
2018-07-27T04:37:30.496Z,27.70
2018-07-27T04:38:35.369Z,27.70
2018-07-27T04:39:40.354Z,27.60
2018-07-27T04:40:45.362Z,27.60
2018-07-27T04:41:50.146Z,27.60
2018-07-27T04:42:55.063Z,27.50
2018-07-27T04:43:59.848Z,27.40
2018-07-27T04:45:04.804Z,27.30
2018-07-27T04:46:09.616Z,27.30
2018-07-27T04:47:14.656Z,27.20
2018-07-27T04:48:19.650Z,27.20
2018-07-27T04:49:24.660Z,27.10
2018-07-27T04:50:30.838Z,27.10
2018-07-27T04:51:37.937Z,27.10
2018-07-27T04:52:43.007Z,27.00
2018-07-27T04:53:47.874Z,27.00
2018-07-27T04:54:53.625Z,27.00
2018-07-27T04:55:59.091Z,27.00
2018-07-27T04:57:03.952Z,27.00
2018-07-27T04:58:09.014Z,27.00
2018-07-27T04:59:14.216Z,27.00
2018-07-27T05:00:19.158Z,27.00
2018-07-27T05:01:24.031Z,27.00
2018-07-27T05:02:29.226Z,27.00
2018-07-27T05:03:34.070Z,27.00
2018-07-27T05:04:39.120Z,27.10
2018-07-27T05:05:44.091Z,27.10
2018-07-27T05:06:49.754Z,27.10
2018-07-27T05:07:54.639Z,27.20
2018-07-27T05:08:59.778Z,27.20
2018-07-27T05:10:04.655Z,27.20
2018-07-27T05:11:09.713Z,27.20
2018-07-27T05:12:14.673Z,27.20
2018-07-27T05:13:19.462Z,27.20
2018-07-27T05:14:24.235Z,27.20
2018-07-27T05:15:29.183Z,27.20
2018-07-27T05:16:34.175Z,27.20
2018-07-27T05:17:38.968Z,27.20
2018-07-27T05:18:43.928Z,27.20
2018-07-27T05:19:48.911Z,27.20
2018-07-27T05:20:53.911Z,27.20
2018-07-27T05:21:58.883Z,27.20
2018-07-27T05:23:03.863Z,27.20
2018-07-27T05:24:08.680Z,27.20
2018-07-27T05:25:13.603Z,27.20
2018-07-27T05:26:18.470Z,27.30
2018-07-27T05:27:23.495Z,27.30
2018-07-27T05:28:28.451Z,27.30
2018-07-27T05:29:33.636Z,27.30
2018-07-27T05:30:38.742Z,27.30
2018-07-27T05:31:43.634Z,27.30
2018-07-27T05:32:48.514Z,27.20
2018-07-27T05:33:53.602Z,27.20
2018-07-27T05:34:58.664Z,27.20
2018-07-27T05:36:03.722Z,27.20
2018-07-27T05:37:08.541Z,27.20
2018-07-27T05:38:13.491Z,27.20
2018-07-27T05:39:18.378Z,27.20
2018-07-27T05:40:23.197Z,27.20
2018-07-27T05:41:28.248Z,27.20
2018-07-27T05:42:33.266Z,27.20
2018-07-27T05:43:38.176Z,27.10
2018-07-27T05:44:43.217Z,27.10
2018-07-27T05:45:48.305Z,27.10
2018-07-27T05:46:53.319Z,27.10
2018-07-27T05:47:58.401Z,27.10
2018-07-27T05:49:04.579Z,27.10
2018-07-27T05:50:09.632Z,27.10
2018-07-27T05:51:14.520Z,27.10
2018-07-27T05:52:19.471Z,27.20
2018-07-27T05:53:24.265Z,27.10
2018-07-27T05:54:29.333Z,27.10
2018-07-27T05:55:36.216Z,27.20
2018-07-27T05:56:41.214Z,27.20
2018-07-27T05:57:45.970Z,27.20
2018-07-27T05:58:51.116Z,27.20
2018-07-27T05:59:55.946Z,27.20
2018-07-27T06:01:00.818Z,27.20
2018-07-27T06:02:05.688Z,27.20
2018-07-27T06:03:10.525Z,27.20
2018-07-27T06:04:15.636Z,27.20
2018-07-27T06:05:20.542Z,27.20
2018-07-27T06:06:25.431Z,27.20
2018-07-27T06:07:30.499Z,27.20
2018-07-27T06:08:35.471Z,27.20
2018-07-27T06:09:40.541Z,27.20
2018-07-27T06:10:45.458Z,27.20
2018-07-27T06:11:50.416Z,27.20
2018-07-27T06:12:55.359Z,27.20
2018-07-27T06:14:06.214Z,27.20
2018-07-27T06:15:11.203Z,27.30
2018-07-27T06:16:16.362Z,27.30
2018-07-27T06:17:21.260Z,27.30
2018-07-27T06:18:26.278Z,27.30
2018-07-27T06:19:31.209Z,27.30
2018-07-27T06:20:36.235Z,27.30
2018-07-27T06:21:41.189Z,27.30
2018-07-27T06:22:49.614Z,27.30
2018-07-27T06:23:54.636Z,27.30
2018-07-27T06:24:59.531Z,27.30
2018-07-27T06:26:04.554Z,27.30
2018-07-27T06:27:09.570Z,27.30
2018-07-27T06:28:14.728Z,27.30
2018-07-27T06:29:19.740Z,27.30
2018-07-27T06:30:24.873Z,27.30
2018-07-27T06:31:29.893Z,27.30
2018-07-27T06:32:34.849Z,27.30
2018-07-27T06:33:39.953Z,27.30
2018-07-27T06:34:44.972Z,27.30
2018-07-27T06:35:50.053Z,27.30
2018-07-27T06:36:55.086Z,27.30
2018-07-27T06:38:00.306Z,27.30
2018-07-27T06:39:05.884Z,27.30
2018-07-27T06:40:10.882Z,27.30
2018-07-27T06:41:15.916Z,27.30
2018-07-27T06:42:20.916Z,27.40
2018-07-27T06:43:25.919Z,27.30
2018-07-27T06:44:39.649Z,27.40
2018-07-27T06:45:45.800Z,27.40
2018-07-27T06:46:50.897Z,27.40
2018-07-27T06:47:56.168Z,27.40
2018-07-27T06:49:01.310Z,27.40
2018-07-27T06:50:06.290Z,27.40
2018-07-27T06:51:11.094Z,27.40
2018-07-27T06:52:16.004Z,27.40
2018-07-27T06:53:20.793Z,27.40
2018-07-27T06:54:25.642Z,27.40
2018-07-27T06:55:30.648Z,27.40
2018-07-27T06:56:35.882Z,27.40
2018-07-27T06:57:41.236Z,27.40
2018-07-27T06:58:46.037Z,27.40
2018-07-27T06:59:50.849Z,27.40
2018-07-27T07:00:57.433Z,27.40
2018-07-27T07:02:02.408Z,27.40
2018-07-27T07:03:07.157Z,27.40
2018-07-27T07:04:12.152Z,27.40
2018-07-27T07:05:17.032Z,27.40
2018-07-27T07:06:22.242Z,27.40
2018-07-27T07:07:27.387Z,27.40
2018-07-27T07:08:32.307Z,27.40
2018-07-27T07:09:37.384Z,27.40
2018-07-27T07:10:42.316Z,27.40
2018-07-27T07:11:47.545Z,27.40
2018-07-27T07:12:52.390Z,27.40
2018-07-27T07:13:57.744Z,27.40
2018-07-27T07:15:02.837Z,27.40
2018-07-27T07:16:08.164Z,27.50
2018-07-27T07:17:14.417Z,27.50
2018-07-27T07:18:19.600Z,27.50
2018-07-27T07:19:24.619Z,27.50
2018-07-27T07:20:29.815Z,27.50
2018-07-27T07:21:34.909Z,27.50
2018-07-27T07:22:39.835Z,27.50
2018-07-27T07:23:45.065Z,27.50
2018-07-27T07:24:50.381Z,27.50
2018-07-27T07:25:55.432Z,27.50
2018-07-27T07:27:00.456Z,27.50
2018-07-27T07:28:05.498Z,27.50
2018-07-27T07:29:10.545Z,27.50
2018-07-27T07:30:15.382Z,27.50
2018-07-27T07:31:20.416Z,27.50
2018-07-27T07:32:25.374Z,27.50
2018-07-27T07:33:30.428Z,27.50
2018-07-27T07:34:35.283Z,27.50
2018-07-27T07:35:40.110Z,27.50
2018-07-27T07:36:44.939Z,27.50
2018-07-27T07:37:49.870Z,27.50
2018-07-27T07:38:54.854Z,27.50
2018-07-27T07:39:59.791Z,27.50
2018-07-27T07:41:04.819Z,27.50
2018-07-27T07:42:09.714Z,27.50
2018-07-27T07:43:14.739Z,27.50
2018-07-27T07:44:19.875Z,27.50
2018-07-27T07:45:24.828Z,27.50
2018-07-27T07:46:29.689Z,27.50
2018-07-27T07:47:34.775Z,27.50
2018-07-27T07:48:39.614Z,27.50
2018-07-27T07:49:44.998Z,27.50
2018-07-27T07:50:50.095Z,27.50
2018-07-27T07:51:55.209Z,27.50
2018-07-27T07:53:00.341Z,27.50
2018-07-27T07:54:05.308Z,27.50
2018-07-27T07:55:10.365Z,27.50
2018-07-27T07:56:15.295Z,27.60
2018-07-27T07:57:20.301Z,27.60
2018-07-27T07:58:25.284Z,27.50
2018-07-27T07:59:30.308Z,27.60
2018-07-27T08:00:35.362Z,27.60
2018-07-27T08:01:40.454Z,27.60
2018-07-27T08:02:45.376Z,27.60
2018-07-27T08:03:50.221Z,27.60
2018-07-27T08:04:55.727Z,27.60
2018-07-27T08:06:00.690Z,27.60
2018-07-27T08:07:06.040Z,27.60
2018-07-27T08:08:10.975Z,27.60
2018-07-27T08:09:16.013Z,27.60
2018-07-27T08:10:20.944Z,27.60
2018-07-27T08:11:25.989Z,27.60
2018-07-27T08:12:31.086Z,27.60
2018-07-27T08:13:36.024Z,27.60
2018-07-27T08:14:41.086Z,27.60
2018-07-27T08:15:46.160Z,27.60
2018-07-27T08:16:51.020Z,27.60
2018-07-27T08:17:56.275Z,27.60
2018-07-27T08:19:01.147Z,27.60
2018-07-27T08:20:06.171Z,27.60
2018-07-27T08:21:11.376Z,27.60
2018-07-27T08:22:17.359Z,27.60
2018-07-27T08:23:22.235Z,27.60
2018-07-27T08:24:27.604Z,27.60
2018-07-27T08:25:32.407Z,27.60
2018-07-27T08:26:37.429Z,27.60
2018-07-27T08:27:42.303Z,27.60
2018-07-27T08:28:47.408Z,27.60
2018-07-27T08:29:52.417Z,27.60
2018-07-27T08:30:57.275Z,27.60
2018-07-27T08:32:02.346Z,27.60
2018-07-27T08:33:07.367Z,27.60
2018-07-27T08:34:12.172Z,27.60
2018-07-27T08:35:17.045Z,27.60
2018-07-27T08:36:22.232Z,27.60
2018-07-27T08:37:27.140Z,27.60
2018-07-27T08:38:31.898Z,27.60
2018-07-27T08:39:36.937Z,27.60
2018-07-27T08:40:41.670Z,27.60
2018-07-27T08:41:46.657Z,27.60
2018-07-27T08:42:51.545Z,27.60
2018-07-27T08:43:56.371Z,27.70
2018-07-27T08:45:01.109Z,27.70
2018-07-27T08:46:05.842Z,27.70
2018-07-27T08:47:10.934Z,27.70
2018-07-27T08:48:15.869Z,27.70
2018-07-27T08:49:20.616Z,27.70
2018-07-27T08:50:25.415Z,27.70
2018-07-27T08:51:30.223Z,27.60
2018-07-27T08:52:34.996Z,27.70
2018-07-27T08:53:39.955Z,27.60
2018-07-27T08:54:44.839Z,27.60
2018-07-27T08:55:49.604Z,27.60
2018-07-27T08:56:54.614Z,27.60
2018-07-27T08:57:59.700Z,27.60
2018-07-27T08:59:04.676Z,27.60
2018-07-27T09:00:09.607Z,27.60
2018-07-27T09:01:14.554Z,27.60
2018-07-27T09:02:19.535Z,27.60
2018-07-27T09:03:24.564Z,27.60
2018-07-27T09:04:29.438Z,27.60
2018-07-27T09:05:34.263Z,27.60
2018-07-27T09:06:39.245Z,27.70
2018-07-27T09:07:44.204Z,27.60
2018-07-27T09:08:49.234Z,27.60
2018-07-27T09:09:54.458Z,27.60
2018-07-27T09:10:59.811Z,27.60
2018-07-27T09:12:04.821Z,27.60
2018-07-27T09:13:09.638Z,27.60
2018-07-27T09:14:14.388Z,27.60
2018-07-27T09:15:19.238Z,27.60
2018-07-27T09:16:24.546Z,27.60
2018-07-27T09:17:29.405Z,27.60
2018-07-27T09:18:34.408Z,27.60
2018-07-27T09:19:42.992Z,27.60
2018-07-27T09:20:48.122Z,27.60
2018-07-27T09:21:53.676Z,27.60
2018-07-27T09:22:59.337Z,27.60
2018-07-27T09:25:00.094Z,27.60
2018-07-27T09:26:12.139Z,27.60
2018-07-27T09:27:18.688Z,27.60
2018-07-27T09:28:38.942Z,27.60
2018-07-27T09:29:43.942Z,27.60
2018-07-27T09:30:49.528Z,27.60
2018-07-27T09:31:56.780Z,27.60
2018-07-27T09:33:02.458Z,27.60
2018-07-27T09:34:08.596Z,27.60
2018-07-27T09:35:13.449Z,27.60
2018-07-27T09:36:18.352Z,27.60
2018-07-27T09:37:23.079Z,27.60
2018-07-27T09:38:27.903Z,27.60
2018-07-27T09:39:32.854Z,27.70
2018-07-27T09:40:37.897Z,27.60
2018-07-27T09:41:42.596Z,27.60
2018-07-27T09:42:47.624Z,27.70
2018-07-27T09:43:52.763Z,27.70
2018-07-27T09:44:58.041Z,27.70
2018-07-27T09:46:04.582Z,27.70
2018-07-27T09:47:09.441Z,27.60
2018-07-27T09:48:14.591Z,27.70
2018-07-27T09:49:19.735Z,27.70
2018-07-27T09:50:24.662Z,27.70
2018-07-27T09:51:29.628Z,27.70
2018-07-27T09:52:34.541Z,27.70
2018-07-27T09:53:39.397Z,27.70
2018-07-27T09:54:44.482Z,27.70
2018-07-27T09:55:49.375Z,27.70
2018-07-27T09:56:54.323Z,27.70
2018-07-27T09:57:59.469Z,27.60
2018-07-27T09:59:04.928Z,27.70
2018-07-27T10:00:10.278Z,27.70
2018-07-27T10:01:15.095Z,27.70
2018-07-27T10:02:20.220Z,27.70
2018-07-27T10:03:25.290Z,27.70
2018-07-27T10:04:30.342Z,27.70
2018-07-27T10:05:35.162Z,27.70
2018-07-27T10:06:40.221Z,27.70
2018-07-27T10:07:45.255Z,27.70
2018-07-27T10:08:50.338Z,27.70
2018-07-27T10:09:55.581Z,27.70
2018-07-27T10:11:00.542Z,27.70
2018-07-27T10:12:05.661Z,27.70
2018-07-27T10:13:10.476Z,27.70
2018-07-27T10:14:15.863Z,27.70
2018-07-27T10:15:20.830Z,27.70
2018-07-27T10:16:25.967Z,27.70
2018-07-27T10:17:31.001Z,27.70
2018-07-27T10:18:36.132Z,27.70
2018-07-27T10:19:41.096Z,27.70
2018-07-27T10:20:46.061Z,27.70
2018-07-27T10:21:51.198Z,27.70
2018-07-27T10:22:55.949Z,27.70
2018-07-27T10:24:00.890Z,27.70
2018-07-27T10:25:05.958Z,27.70
2018-07-27T10:26:10.917Z,27.70
2018-07-27T10:27:15.839Z,27.70
2018-07-27T10:28:20.944Z,27.70
2018-07-27T10:29:25.795Z,27.70
2018-07-27T10:30:30.805Z,27.70
2018-07-27T10:31:35.795Z,27.70
2018-07-27T10:32:40.776Z,27.70
2018-07-27T10:33:46.045Z,27.70
2018-07-27T10:34:51.079Z,27.70
2018-07-27T10:35:56.020Z,27.70
2018-07-27T10:37:01.087Z,27.70
2018-07-27T10:38:06.128Z,27.70
2018-07-27T10:39:10.985Z,27.70
2018-07-27T10:40:15.916Z,27.70
2018-07-27T10:41:31.837Z,27.70
2018-07-27T10:42:36.889Z,27.70
2018-07-27T10:43:41.866Z,27.70
2018-07-27T10:44:46.781Z,27.70
2018-07-27T10:45:51.765Z,27.70
2018-07-27T10:46:56.771Z,27.70
2018-07-27T10:48:01.631Z,27.70
2018-07-27T10:49:06.642Z,27.70
2018-07-27T10:50:11.500Z,27.70
2018-07-27T10:51:16.284Z,27.70
2018-07-27T10:52:21.118Z,27.70
2018-07-27T10:53:25.979Z,27.70
2018-07-27T10:54:30.989Z,27.70
2018-07-27T10:55:35.951Z,27.70
2018-07-27T10:56:40.786Z,27.70
2018-07-27T10:57:45.554Z,27.70
2018-07-27T10:58:50.531Z,27.70
2018-07-27T10:59:55.396Z,27.70
2018-07-27T11:01:00.208Z,27.70
2018-07-27T11:02:05.057Z,27.70
2018-07-27T11:03:10.077Z,27.70
2018-07-27T11:04:14.957Z,27.70
2018-07-27T11:05:19.756Z,27.70
2018-07-27T11:06:24.743Z,27.70
2018-07-27T11:07:29.870Z,27.70
2018-07-27T11:08:34.918Z,27.70
2018-07-27T11:09:39.784Z,27.70
2018-07-27T11:10:44.775Z,27.70
2018-07-27T11:11:49.820Z,27.70
2018-07-27T11:12:54.756Z,27.70
2018-07-27T11:13:59.734Z,27.70
2018-07-27T11:15:04.674Z,27.70
2018-07-27T11:16:09.680Z,27.70
2018-07-27T11:17:14.580Z,27.70
2018-07-27T11:18:19.653Z,27.70
2018-07-27T11:19:24.651Z,27.70
2018-07-27T11:20:29.604Z,27.70
2018-07-27T11:21:34.471Z,27.70
2018-07-27T11:22:39.325Z,27.80
2018-07-27T11:23:44.480Z,27.80
2018-07-27T11:24:49.502Z,27.80
2018-07-27T11:25:54.585Z,27.80
2018-07-27T11:26:59.419Z,27.80
2018-07-27T11:28:04.459Z,27.80
2018-07-27T11:29:09.471Z,27.80
2018-07-27T11:30:14.483Z,27.80
2018-07-27T11:31:19.622Z,27.80
2018-07-27T11:32:24.950Z,27.80
2018-07-27T11:33:29.948Z,27.80
2018-07-27T11:34:34.820Z,27.80
2018-07-27T11:35:39.854Z,27.80
2018-07-27T11:36:44.952Z,27.80
2018-07-27T11:37:49.860Z,27.80
2018-07-27T11:38:54.910Z,27.80
2018-07-27T11:40:00.031Z,27.80
2018-07-27T11:41:05.229Z,27.80
2018-07-27T11:42:10.367Z,27.70
2018-07-27T11:43:15.344Z,27.80
2018-07-27T11:44:20.402Z,27.80
2018-07-27T11:45:25.526Z,27.70
2018-07-27T11:46:30.480Z,27.70
2018-07-27T11:47:35.480Z,27.80
2018-07-27T11:48:40.430Z,27.70
2018-07-27T11:49:45.904Z,27.80
2018-07-27T11:50:51.057Z,27.80
2018-07-27T11:51:56.317Z,27.70
2018-07-27T11:53:01.332Z,27.70
2018-07-27T11:54:06.373Z,27.70
2018-07-27T11:55:11.429Z,27.80
2018-07-27T11:56:16.410Z,27.80
2018-07-27T11:57:21.214Z,27.80
2018-07-27T11:58:25.977Z,27.70
2018-07-27T11:59:30.866Z,27.80
2018-07-27T12:00:35.876Z,27.80
2018-07-27T12:01:40.854Z,27.80
2018-07-27T12:02:46.002Z,27.80
2018-07-27T12:03:50.787Z,27.70
2018-07-27T12:04:55.595Z,27.80
2018-07-27T12:06:00.641Z,27.80
2018-07-27T12:07:05.557Z,27.80
2018-07-27T12:08:11.330Z,27.80
2018-07-27T12:09:16.703Z,27.80
2018-07-27T12:10:21.745Z,27.80
2018-07-27T12:11:26.623Z,27.80
2018-07-27T12:12:31.492Z,27.80
2018-07-27T12:13:36.558Z,27.80
2018-07-27T12:14:41.573Z,27.80
2018-07-27T12:15:46.279Z,27.80
2018-07-27T12:16:51.154Z,27.80
2018-07-27T12:17:55.987Z,27.80
2018-07-27T12:19:01.085Z,27.70
2018-07-27T12:20:05.987Z,27.80
2018-07-27T12:21:11.204Z,27.80
2018-07-27T12:22:16.203Z,27.80
2018-07-27T12:23:21.193Z,27.80
2018-07-27T12:24:26.063Z,27.80
2018-07-27T12:25:31.219Z,27.80
2018-07-27T12:26:36.028Z,27.80
2018-07-27T12:27:41.482Z,27.80
2018-07-27T12:28:46.306Z,27.80
2018-07-27T12:29:51.084Z,27.80
2018-07-27T12:30:55.914Z,27.80
2018-07-27T12:32:00.672Z,27.80
2018-07-27T12:33:05.499Z,27.80
2018-07-27T12:34:10.472Z,27.80
2018-07-27T12:35:15.463Z,27.80
2018-07-27T12:36:20.564Z,27.80
2018-07-27T12:37:25.348Z,27.80
2018-07-27T12:38:31.513Z,27.80
2018-07-27T12:39:36.639Z,27.80
2018-07-27T12:40:42.024Z,27.80
2018-07-27T12:41:47.014Z,27.80
2018-07-27T12:42:52.006Z,27.90
2018-07-27T12:43:57.115Z,27.80
2018-07-27T12:45:02.207Z,27.80
2018-07-27T12:46:08.123Z,27.80
2018-07-27T12:47:13.576Z,27.80
2018-07-27T12:48:18.456Z,27.80
2018-07-27T12:49:23.554Z,27.80
2018-07-27T12:50:28.578Z,27.80
2018-07-27T12:51:33.711Z,27.80
2018-07-27T12:52:38.567Z,27.80
2018-07-27T12:53:43.495Z,27.80
2018-07-27T12:54:48.530Z,27.80
2018-07-27T12:55:53.554Z,27.80
2018-07-27T12:56:58.403Z,27.80
2018-07-27T12:58:03.430Z,27.80
2018-07-27T12:59:08.569Z,27.80
2018-07-27T13:00:13.620Z,27.80
2018-07-27T13:01:18.467Z,27.80
2018-07-27T13:02:23.245Z,27.80
2018-07-27T13:03:28.287Z,27.80
2018-07-27T13:04:33.317Z,27.80
2018-07-27T13:05:38.122Z,27.80
2018-07-27T13:06:43.085Z,27.80
2018-07-27T13:07:47.896Z,27.80
2018-07-27T13:08:52.706Z,27.80
2018-07-27T13:09:57.438Z,27.80
2018-07-27T13:11:02.199Z,27.80
2018-07-27T13:12:07.136Z,27.80
2018-07-27T13:13:12.173Z,27.80
2018-07-27T13:14:17.213Z,27.80
2018-07-27T13:15:21.990Z,27.80
2018-07-27T13:16:26.981Z,27.80
2018-07-27T13:17:31.803Z,27.80
2018-07-27T13:18:36.839Z,27.80
2018-07-27T13:19:41.680Z,27.80
2018-07-27T13:20:46.733Z,27.80
2018-07-27T13:21:51.823Z,27.80
2018-07-27T13:22:56.883Z,27.80
2018-07-27T13:24:01.672Z,27.80
2018-07-27T13:25:06.960Z,27.80
2018-07-27T13:26:26.057Z,27.80
2018-07-27T13:27:19.088Z,27.80
2018-07-27T13:28:23.853Z,27.90
2018-07-27T13:29:29.998Z,27.80
2018-07-27T13:30:34.865Z,27.80
2018-07-27T13:31:39.723Z,27.80
2018-07-27T13:32:44.764Z,27.80
2018-07-27T13:33:49.553Z,27.80
2018-07-27T13:34:54.637Z,27.80
2018-07-27T13:37:04.566Z,27.80
2018-07-27T13:38:09.440Z,27.80
2018-07-27T13:39:14.454Z,27.80
2018-07-27T13:40:19.484Z,27.80
2018-07-27T13:41:24.271Z,27.80
2018-07-27T13:42:29.048Z,27.80
2018-07-27T13:43:33.866Z,27.80
2018-07-27T13:44:38.620Z,27.80
2018-07-27T13:45:43.424Z,27.80
2018-07-27T13:46:48.280Z,27.80
2018-07-27T13:47:53.086Z,27.80
2018-07-27T13:48:58.007Z,27.80
2018-07-27T13:50:03.243Z,27.80
2018-07-27T13:51:08.057Z,27.80
2018-07-27T13:52:12.994Z,27.80
2018-07-27T13:53:18.056Z,27.80
2018-07-27T13:54:23.028Z,27.80
2018-07-27T13:55:28.382Z,27.80
2018-07-27T13:56:33.353Z,27.80
2018-07-27T13:57:38.464Z,27.80
2018-07-27T13:58:43.384Z,27.80
2018-07-27T13:59:48.205Z,27.80